This is the latest recevied weather packets stored in our database for station/object K8BCO. If no packets are shown the sender has not sent any weather packets the latest 1 day(s).
| Time | Temp. | Humidity | Pressure | Rain* | Wind** | Luminosity | Snow |
|---|---|---|---|---|---|---|---|
| 1778018126 | 5° C | 49% | 1008.1 hPa | 0 mm | 2.24 m/s, 349° | 255 W/m² | - |
| 1778017517 | 5° C | 50% | 1007.8 hPa | 0 mm | 2.24 m/s, 1° | 328 W/m² | - |
| 1778016917 | 5° C | 51% | 1007.9 hPa | 0 mm | 2.24 m/s, 346° | 308 W/m² | - |
| 1778016317 | 5.56° C | 51% | 1007.8 hPa | 0 mm | 2.24 m/s, 318° | 294 W/m² | - |
| 1778015718 | 5.56° C | 52% | 1007.8 hPa | 0 mm | 1.34 m/s, 289° | 276 W/m² | - |
| 1778015118 | 5.56° C | 52% | 1007.7 hPa | 0 mm | 2.24 m/s, 310° | 374 W/m² | - |
| 1778014518 | 5.56° C | 53% | 1007.5 hPa | 0 mm | 2.24 m/s, 309° | 333 W/m² | - |
| 1778013918 | 5.56° C | 53% | 1007.5 hPa | 0 mm | 2.24 m/s, 337° | 232 W/m² | - |
| 1778013319 | 6.11° C | 51% | 1007.2 hPa | 0 mm | 1.34 m/s, 9° | 298 W/m² | - |
| 1778012718 | 6.11° C | 50% | 1007.1 hPa | 0 mm | 1.79 m/s, 305° | 401 W/m² | - |
| 1778012116 | 6.11° C | 50% | 1007.1 hPa | 0 mm | 1.79 m/s, 352° | 347 W/m² | - |
| 1778011515 | 6.67° C | 48% | 1006.9 hPa | 0 mm | 2.24 m/s, 277° | 405 W/m² | - |
| 1778010917 | 6.67° C | 49% | 1006.7 hPa | 0 mm | 1.79 m/s, 312° | 569 W/m² | - |
| 1778010316 | 6.67° C | 49% | 1006.9 hPa | 0 mm | 1.79 m/s, 301° | 307 W/m² | - |
| 1778009716 | 6.67° C | 49% | 1006.6 hPa | 0 mm | 2.24 m/s, 292° | 792 W/m² | - |
| 1778009116 | 6.67° C | 51% | 1006.6 hPa | 0 mm | 2.24 m/s, 354° | 495 W/m² | - |
| 1778008517 | 6.67° C | 52% | 1006.5 hPa | 0 mm | 1.79 m/s, 265° | 451 W/m² | - |
| 1778007917 | 6.67° C | 54% | 1006.5 hPa | 0 mm | 2.24 m/s, 336° | 803 W/m² | - |
| 1778007317 | 6.67° C | 54% | 1006.2 hPa | 0 mm | 1.79 m/s, 327° | 833 W/m² | - |
| 1778006717 | 6.11° C | 56% | 1006.3 hPa | 0 mm | 2.68 m/s, 27° | 847 W/m² | - |
| 1778006117 | 6.11° C | 59% | 1006.2 hPa | 0 mm | 1.79 m/s, 22° | 899 W/m² | - |
| 1778005517 | 5.56° C | 60% | 1006.3 hPa | 0 mm | 2.24 m/s, 339° | 421 W/m² | - |
| 1778004917 | 6.11° C | 60% | 1006.2 hPa | 0 mm | 1.79 m/s, 333° | 526 W/m² | - |
| 1778004317 | 5° C | 63% | 1006 hPa | 0 mm | 1.79 m/s, 354° | 726 W/m² | - |
| 1778003718 | 4.44° C | 65% | 1006.1 hPa | 0 mm | 1.79 m/s, 335° | 263 W/m² | - |
* Rain latest hour (hover to see other rain measurements)
** Current wind speed in m/s (hover to see current wind gust speed)